createdAt,value
2018-10-07T00:01:55.807Z,15.99
2018-10-07T00:04:25.273Z,15.97
2018-10-07T00:06:54.627Z,15.92
2018-10-07T00:09:24.075Z,15.63
2018-10-07T00:11:53.333Z,15.86
2018-10-07T00:14:22.878Z,15.87
2018-10-07T00:16:52.384Z,15.87
2018-10-07T00:19:21.620Z,15.90
2018-10-07T00:21:51.496Z,15.81
2018-10-07T00:24:20.736Z,15.62
2018-10-07T00:26:50.250Z,15.72
2018-10-07T00:29:19.768Z,15.84
2018-10-07T00:31:54.556Z,15.78
2018-10-07T00:34:23.792Z,15.77
2018-10-07T00:36:53.846Z,15.88
2018-10-07T00:39:23.350Z,15.99
2018-10-07T00:41:52.753Z,15.96
2018-10-07T00:44:22.432Z,15.93
2018-10-07T00:46:51.729Z,15.85
2018-10-07T00:49:21.267Z,15.96
2018-10-07T00:51:50.669Z,15.90
2018-10-07T00:54:20.173Z,15.89
2018-10-07T00:56:49.676Z,15.86
2018-10-07T00:59:19.180Z,15.66
2018-10-07T01:01:48.652Z,15.53
2018-10-07T01:04:18.165Z,15.48
2018-10-07T01:06:48.616Z,15.67
2018-10-07T01:09:18.109Z,15.65
2018-10-07T01:11:47.589Z,15.56
2018-10-07T01:14:17.333Z,15.53
2018-10-07T01:16:46.820Z,15.38
2018-10-07T01:19:16.287Z,15.42
2018-10-07T01:21:45.949Z,15.47
2018-10-07T01:24:15.555Z,15.51
2018-10-07T01:26:44.821Z,15.47
2018-10-07T01:29:14.257Z,15.47
2018-10-07T01:31:43.865Z,15.45
2018-10-07T01:34:13.266Z,15.41
2018-10-07T01:36:42.974Z,15.44
2018-10-07T01:39:13.505Z,15.38
2018-10-07T01:41:43.108Z,15.36
2018-10-07T01:44:12.613Z,15.28
2018-10-07T01:46:43.091Z,15.31
2018-10-07T01:49:12.441Z,15.35
2018-10-07T01:51:41.895Z,15.41
2018-10-07T01:54:11.158Z,15.43
2018-10-07T01:56:40.953Z,15.36
2018-10-07T01:59:10.572Z,15.23
2018-10-07T02:01:40.063Z,15.22
2018-10-07T02:04:10.699Z,15.19
2018-10-07T02:06:40.101Z,15.16
2018-10-07T02:09:10.421Z,15.15
2018-10-07T02:11:39.768Z,15.16
2018-10-07T02:14:09.225Z,15.13
2018-10-07T02:16:38.831Z,15.14
2018-10-07T02:19:08.147Z,15.18
2018-10-07T02:21:37.636Z,15.15
2018-10-07T02:24:07.391Z,15.13
2018-10-07T02:26:37.364Z,15.10
2018-10-07T02:29:06.764Z,15.05
2018-10-07T02:31:36.371Z,15.11
2018-10-07T02:34:05.968Z,14.94
2018-10-07T02:36:35.582Z,15.04
2018-10-07T02:39:07.383Z,15.00
2018-10-07T02:41:36.742Z,15.14
2018-10-07T02:44:06.348Z,15.16
2018-10-07T02:46:35.853Z,15.16
2018-10-07T02:49:05.254Z,15.15
2018-10-07T02:51:35.064Z,15.15
2018-10-07T02:54:04.640Z,15.11
2018-10-07T02:56:35.124Z,15.10
2018-10-07T02:59:04.920Z,15.10
2018-10-07T03:01:34.491Z,15.05
2018-10-07T03:04:04.226Z,15.00
2018-10-07T03:06:33.730Z,15.00
2018-10-07T03:09:03.234Z,14.87
2018-10-07T03:11:32.634Z,14.84
2018-10-07T03:14:02.140Z,14.83
2018-10-07T03:16:31.645Z,14.85
2018-10-07T03:19:01.356Z,14.89
2018-10-07T03:21:31.164Z,14.81
2018-10-07T03:24:00.567Z,14.79
2018-10-07T03:26:30.072Z,14.62
2018-10-07T03:28:59.576Z,14.69
2018-10-07T03:31:28.815Z,14.63
2018-10-07T03:33:58.277Z,14.66
2018-10-07T03:36:27.680Z,14.72
2018-10-07T03:38:56.980Z,14.72
2018-10-07T03:41:26.381Z,14.73
2018-10-07T03:43:55.783Z,14.71
2018-10-07T03:46:25.185Z,14.67
2018-10-07T03:48:55.426Z,14.66
2018-10-07T03:51:24.755Z,14.64
2018-10-07T03:53:54.106Z,14.63
2018-10-07T03:56:23.614Z,14.55
2018-10-07T03:58:52.831Z,14.59
2018-10-07T04:01:22.520Z,14.54
2018-10-07T04:03:51.916Z,14.47
2018-10-07T04:06:22.346Z,14.43
2018-10-07T04:08:51.564Z,14.50
2018-10-07T04:11:22.173Z,14.45
2018-10-07T04:13:51.574Z,14.49
2018-10-07T04:16:21.945Z,14.53
2018-10-07T04:18:51.461Z,14.41
2018-10-07T04:21:21.956Z,14.37
2018-10-07T04:23:51.333Z,14.30
2018-10-07T04:26:20.639Z,14.20
2018-10-07T04:28:50.344Z,14.13
2018-10-07T04:31:19.883Z,14.16
2018-10-07T04:33:49.271Z,14.16
2018-10-07T04:36:18.855Z,14.19
2018-10-07T04:38:48.489Z,14.17
2018-10-07T04:41:17.728Z,14.29
2018-10-07T04:43:47.367Z,14.21
2018-10-07T04:46:16.798Z,14.17
2018-10-07T04:48:46.179Z,14.20
2018-10-07T04:51:15.448Z,14.17
2018-10-07T04:53:44.872Z,14.16
2018-10-07T04:56:14.136Z,14.28
2018-10-07T04:58:43.680Z,14.30
2018-10-07T05:01:14.199Z,14.29
2018-10-07T05:03:43.708Z,14.32
2018-10-07T05:06:13.314Z,14.20
2018-10-07T05:08:43.419Z,13.64
2018-10-07T05:11:13.620Z,13.29
2018-10-07T05:13:50.827Z,13.32
2018-10-07T05:16:44.075Z,13.45
2018-10-07T05:19:13.666Z,13.22
2018-10-07T05:21:43.315Z,12.94
2018-10-07T05:24:12.921Z,13.20
2018-10-07T05:26:42.424Z,13.51
2018-10-07T05:29:11.826Z,13.64
2018-10-07T05:31:41.333Z,13.73
2018-10-07T05:34:10.937Z,13.82
2018-10-07T05:36:40.446Z,13.67
2018-10-07T05:39:11.268Z,13.75
2018-10-07T05:41:40.967Z,13.92
2018-10-07T05:44:10.540Z,13.92
2018-10-07T05:46:39.892Z,13.91
2018-10-07T05:49:09.358Z,13.83
2018-10-07T05:51:38.799Z,13.80
2018-10-07T05:54:08.404Z,13.73
2018-10-07T05:56:37.806Z,13.94
2018-10-07T05:59:07.751Z,14.00
2018-10-07T06:01:42.773Z,14.24
2018-10-07T06:04:22.755Z,14.16
2018-10-07T06:06:52.823Z,14.07
2018-10-07T06:09:29.475Z,14.27
2018-10-07T06:11:59.307Z,14.16
2018-10-07T06:14:40.195Z,14.21
2018-10-07T06:17:09.785Z,14.14
2018-10-07T06:19:39.177Z,14.10
2018-10-07T06:22:08.568Z,14.35
2018-10-07T06:24:38.151Z,14.43
2018-10-07T06:27:07.902Z,14.41
2018-10-07T06:29:37.541Z,14.58
2018-10-07T06:32:06.916Z,14.56
2018-10-07T06:34:36.283Z,14.40
2018-10-07T06:37:05.809Z,14.60
2018-10-07T06:39:35.426Z,14.66
2018-10-07T06:42:04.928Z,14.67
2018-10-07T06:44:34.534Z,14.68
2018-10-07T06:47:05.984Z,14.58
2018-10-07T06:49:35.487Z,14.56
2018-10-07T06:52:05.094Z,14.66
2018-10-07T06:54:34.601Z,14.64
2018-10-07T06:57:04.207Z,14.71
2018-10-07T06:59:33.768Z,14.77
2018-10-07T07:02:03.317Z,14.92
2018-10-07T07:04:32.719Z,15.03
2018-10-07T07:07:02.223Z,15.10
2018-10-07T07:09:31.624Z,15.10
2018-10-07T07:12:00.926Z,15.15
2018-10-07T07:14:30.327Z,15.29
2018-10-07T07:16:59.728Z,15.42
2018-10-07T07:19:29.300Z,15.46
2018-10-07T07:21:58.736Z,15.47
2018-10-07T07:24:27.967Z,15.70
2018-10-07T07:26:57.440Z,15.92
2018-10-07T07:29:26.786Z,16.07
2018-10-07T07:31:56.138Z,16.13
2018-10-07T07:34:25.463Z,16.08
2018-10-07T07:36:54.994Z,16.08
2018-10-07T07:39:24.781Z,16.14
2018-10-07T07:41:54.155Z,16.27
2018-10-07T07:44:23.763Z,16.38
2018-10-07T07:46:53.165Z,16.50
2018-10-07T07:49:22.669Z,16.52
2018-10-07T07:51:52.071Z,16.39
2018-10-07T07:54:21.371Z,16.54
2018-10-07T07:56:50.876Z,16.70
2018-10-07T07:59:20.482Z,16.85
2018-10-07T08:01:51.009Z,16.91
2018-10-07T08:04:20.719Z,17.02
2018-10-07T08:06:50.207Z,16.84
2018-10-07T08:09:21.062Z,16.45
2018-10-07T08:11:50.359Z,16.42
2018-10-07T08:14:19.759Z,16.43
2018-10-07T08:16:49.160Z,16.44
2018-10-07T08:19:18.671Z,16.54
2018-10-07T08:21:48.154Z,16.59
2018-10-07T08:24:17.675Z,16.56
2018-10-07T08:26:46.928Z,16.45
2018-10-07T08:29:19.140Z,16.44
2018-10-07T08:31:48.953Z,16.42
2018-10-07T08:34:18.263Z,16.46
2018-10-07T08:36:48.725Z,16.56
2018-10-07T08:39:18.284Z,16.77
2018-10-07T08:41:47.539Z,16.62
2018-10-07T08:44:17.088Z,16.70
2018-10-07T08:46:46.539Z,16.59
2018-10-07T08:49:18.155Z,16.41
2018-10-07T08:51:47.851Z,16.24
2018-10-07T08:54:21.187Z,16.46
2018-10-07T08:56:52.207Z,16.26
2018-10-07T08:59:24.282Z,16.16
2018-10-07T09:01:54.236Z,16.31
2018-10-07T09:04:24.477Z,16.72
2018-10-07T09:06:54.268Z,16.74
2018-10-07T09:09:23.927Z,16.81
2018-10-07T09:11:53.820Z,16.92
2018-10-07T09:14:23.529Z,16.52
2018-10-07T09:16:53.339Z,16.37
2018-10-07T09:19:23.225Z,15.90
2018-10-07T09:21:53.344Z,15.85
2018-10-07T09:24:24.226Z,16.09
2018-10-07T09:26:53.956Z,15.99
2018-10-07T09:29:23.917Z,16.17
2018-10-07T09:31:53.955Z,15.99
2018-10-07T09:34:23.864Z,16.12
2018-10-07T09:36:54.146Z,16.23
2018-10-07T09:39:24.155Z,16.45
2018-10-07T09:41:54.118Z,16.31
2018-10-07T09:44:24.243Z,16.27
2018-10-07T09:46:54.218Z,16.23
2018-10-07T09:49:24.267Z,16.23
2018-10-07T09:51:54.079Z,16.38
2018-10-07T09:54:24.278Z,16.66
2018-10-07T09:56:54.340Z,16.76
2018-10-07T09:59:24.260Z,16.82
2018-10-07T10:01:54.197Z,16.82
2018-10-07T10:04:25.708Z,16.91
2018-10-07T10:06:56.309Z,16.98
2018-10-07T10:09:26.273Z,17.06
2018-10-07T10:11:56.155Z,16.83
2018-10-07T10:14:26.227Z,16.91
2018-10-07T10:17:03.932Z,16.91
2018-10-07T10:19:47.289Z,16.48
2018-10-07T10:22:25.400Z,16.24
2018-10-07T10:25:01.979Z,16.21
2018-10-07T10:27:55.646Z,15.72
2018-10-07T10:30:32.589Z,15.73
2018-10-07T10:33:10.098Z,15.76
2018-10-07T10:37:01.748Z,15.64
2018-10-07T10:40:03.502Z,15.83
2018-10-07T10:42:35.590Z,15.54
2018-10-07T10:45:05.625Z,15.84
2018-10-07T10:47:43.688Z,15.99
2018-10-07T10:50:25.075Z,15.77
2018-10-07T10:53:09.766Z,15.77
2018-10-07T10:55:49.963Z,15.70
2018-10-07T10:58:36.286Z,15.68
2018-10-07T11:01:15.968Z,15.66
2018-10-07T11:04:27.987Z,15.04
2018-10-07T11:07:15.185Z,14.87
2018-10-07T11:10:52.444Z,14.66
2018-10-07T11:15:33.847Z,14.90
2018-10-07T11:18:13.785Z,15.02
2018-10-07T11:23:01.433Z,14.79
2018-10-07T11:25:43.981Z,14.40
2018-10-07T11:28:26.667Z,14.58
2018-10-07T11:31:26.366Z,14.65
2018-10-07T11:34:07.648Z,14.69
2018-10-07T11:39:03.893Z,14.76
2018-10-07T11:41:43.956Z,14.07
2018-10-07T11:45:19.675Z,14.16
2018-10-07T11:50:08.814Z,14.02
2018-10-07T11:52:50.928Z,14.10
2018-10-07T11:55:20.956Z,14.17
2018-10-07T11:57:50.805Z,14.15
2018-10-07T12:00:20.721Z,14.40
2018-10-07T12:02:50.458Z,14.69
2018-10-07T12:05:20.592Z,14.55
2018-10-07T12:07:50.676Z,14.41
2018-10-07T12:10:20.624Z,14.39
2018-10-07T12:12:50.491Z,14.46
2018-10-07T12:15:20.605Z,14.62
2018-10-07T12:17:51.539Z,14.67
2018-10-07T12:20:27.215Z,14.88
2018-10-07T12:22:57.754Z,15.01
2018-10-07T12:25:27.394Z,14.49
2018-10-07T12:27:57.309Z,14.40
2018-10-07T12:30:26.955Z,14.42
2018-10-07T12:32:56.869Z,14.16
2018-10-07T12:35:27.073Z,14.17
2018-10-07T12:37:56.849Z,14.32
2018-10-07T12:40:26.425Z,14.43
2018-10-07T12:42:55.911Z,14.32
2018-10-07T12:45:25.413Z,14.27
2018-10-07T12:47:55.126Z,14.40
2018-10-07T12:50:24.604Z,14.49
2018-10-07T12:52:59.454Z,14.31
2018-10-07T12:55:34.611Z,14.61
2018-10-07T12:58:04.200Z,13.41
2018-10-07T13:00:34.167Z,14.84
2018-10-07T13:03:04.029Z,14.94
2018-10-07T13:05:33.531Z,14.87
2018-10-07T13:08:03.036Z,14.62
2018-10-07T13:10:32.540Z,14.68
2018-10-07T13:13:01.946Z,14.82
2018-10-07T13:15:31.445Z,14.63
2018-10-07T13:18:01.052Z,14.61
2018-10-07T13:20:30.659Z,14.83
2018-10-07T13:23:00.012Z,14.84
2018-10-07T13:25:29.560Z,14.97
2018-10-07T13:27:59.172Z,14.41
2018-10-07T13:30:28.777Z,14.41
2018-10-07T13:32:58.180Z,14.91
2018-10-07T13:35:27.685Z,14.99
2018-10-07T13:37:57.094Z,14.92
2018-10-07T13:40:26.516Z,14.66
2018-10-07T13:42:55.888Z,14.19
2018-10-07T13:45:25.497Z,14.16
2018-10-07T13:47:54.838Z,14.05
2018-10-07T13:50:24.196Z,13.96
2018-10-07T13:52:54.399Z,14.40
2018-10-07T13:55:23.694Z,14.47
2018-10-07T13:57:53.121Z,14.55
2018-10-07T14:00:22.726Z,14.44
2018-10-07T14:02:52.129Z,14.51
2018-10-07T14:05:21.558Z,14.38
2018-10-07T14:07:50.867Z,14.57
2018-10-07T14:10:20.330Z,14.39
2018-10-07T14:12:49.845Z,14.40
2018-10-07T14:15:19.347Z,14.39
2018-10-07T14:17:48.748Z,14.27
2018-10-07T14:20:18.251Z,14.32
2018-10-07T14:22:47.717Z,14.42
2018-10-07T14:25:17.156Z,14.46
2018-10-07T14:27:46.659Z,14.52
2018-10-07T14:30:16.171Z,14.31
2018-10-07T14:32:45.518Z,13.88
2018-10-07T14:35:15.047Z,13.93
2018-10-07T14:37:44.466Z,13.91
2018-10-07T14:40:13.770Z,13.96
2018-10-07T14:42:42.981Z,14.26
2018-10-07T14:45:12.435Z,14.55
2018-10-07T14:47:41.769Z,14.30
2018-10-07T14:50:11.276Z,14.19
2018-10-07T14:52:40.679Z,14.20
2018-10-07T14:55:10.085Z,14.19
2018-10-07T14:57:39.382Z,14.11
2018-10-07T15:00:08.885Z,14.06
2018-10-07T15:02:38.181Z,14.19
2018-10-07T15:05:07.584Z,14.17
2018-10-07T15:07:36.987Z,14.48
2018-10-07T15:10:06.490Z,14.57
2018-10-07T15:12:35.896Z,14.31
2018-10-07T15:15:05.667Z,14.32
2018-10-07T15:17:35.166Z,14.34
2018-10-07T15:20:04.917Z,14.49
2018-10-07T15:22:34.318Z,14.33
2018-10-07T15:25:03.731Z,14.04
2018-10-07T15:27:33.128Z,14.28
2018-10-07T15:30:02.701Z,14.31
2018-10-07T15:32:32.711Z,14.46
2018-10-07T15:35:02.250Z,14.47
2018-10-07T15:37:31.756Z,14.53
2018-10-07T15:40:01.175Z,14.46
2018-10-07T15:42:30.560Z,14.46
2018-10-07T15:45:00.016Z,14.38
2018-10-07T15:47:29.671Z,14.32
2018-10-07T15:49:59.223Z,14.39
2018-10-07T15:52:28.677Z,14.26
2018-10-07T15:54:58.181Z,14.36
2018-10-07T15:57:27.450Z,14.42
2018-10-07T15:59:56.764Z,14.42
2018-10-07T16:02:26.254Z,14.29
2018-10-07T16:04:55.638Z,14.40
2018-10-07T16:07:25.499Z,14.09
2018-10-07T16:09:56.197Z,14.42
2018-10-07T16:12:25.839Z,14.52
2018-10-07T16:14:55.142Z,14.68
2018-10-07T16:17:24.651Z,14.54
2018-10-07T16:19:53.961Z,14.50
2018-10-07T16:22:24.366Z,14.48
2018-10-07T16:24:53.872Z,14.43
2018-10-07T16:27:23.478Z,14.11
2018-10-07T16:29:52.881Z,13.96
2018-10-07T16:32:22.905Z,13.75
2018-10-07T16:34:52.505Z,13.79
2018-10-07T16:37:21.949Z,13.60
2018-10-07T16:39:51.411Z,13.68
2018-10-07T16:42:20.681Z,13.88
2018-10-07T16:44:50.828Z,13.77
2018-10-07T16:47:20.334Z,13.88
2018-10-07T16:49:49.938Z,13.81
2018-10-07T16:52:19.649Z,13.86
2018-10-07T16:54:48.962Z,13.93
2018-10-07T16:57:18.432Z,14.01
2018-10-07T16:59:47.956Z,14.15
2018-10-07T17:02:17.235Z,14.07
2018-10-07T17:04:46.657Z,14.04
2018-10-07T17:07:16.116Z,14.17
2018-10-07T17:09:46.689Z,13.97
2018-10-07T17:12:16.083Z,13.99
2018-10-07T17:14:45.698Z,13.99
2018-10-07T17:17:15.615Z,14.01
2018-10-07T17:19:44.985Z,14.08
2018-10-07T17:22:15.031Z,14.17
2018-10-07T17:24:44.636Z,14.26
2018-10-07T17:27:13.951Z,14.28
2018-10-07T17:29:43.542Z,14.25
2018-10-07T17:32:12.867Z,14.28
2018-10-07T17:34:42.315Z,14.19
2018-10-07T17:37:11.681Z,14.27
2018-10-07T17:39:41.151Z,14.23
2018-10-07T17:42:10.457Z,14.18
2018-10-07T17:44:40.056Z,14.12
2018-10-07T17:47:09.520Z,14.19
2018-10-07T17:49:38.818Z,14.15
2018-10-07T17:52:09.284Z,14.14
2018-10-07T17:54:38.792Z,14.20
2018-10-07T17:57:08.908Z,14.16
2018-10-07T17:59:38.412Z,14.24
2018-10-07T18:02:08.366Z,14.26
2018-10-07T18:04:37.853Z,14.29
2018-10-07T18:07:07.214Z,14.22
2018-10-07T18:09:36.942Z,14.26
2018-10-07T18:12:06.238Z,14.32
2018-10-07T18:14:35.743Z,14.35
2018-10-07T18:17:05.025Z,13.95
2018-10-07T18:19:34.344Z,13.51
2018-10-07T18:22:03.584Z,13.35
2018-10-07T18:24:32.943Z,13.43
2018-10-07T18:27:02.346Z,13.65
2018-10-07T18:29:31.747Z,13.71
2018-10-07T18:32:01.045Z,13.78
2018-10-07T18:34:30.552Z,13.68
2018-10-07T18:37:00.055Z,13.67
2018-10-07T18:39:29.662Z,13.89
2018-10-07T18:41:59.167Z,13.81
2018-10-07T18:44:28.572Z,13.73
2018-10-07T18:46:58.072Z,13.44
2018-10-07T18:49:27.369Z,13.32
2018-10-07T18:51:57.020Z,13.39
2018-10-07T18:54:26.386Z,13.36
2018-10-07T18:56:56.396Z,13.32
2018-10-07T18:59:26.822Z,12.99
2018-10-07T19:01:56.328Z,12.98
2018-10-07T19:04:27.881Z,13.14
2018-10-07T19:06:57.381Z,13.33
2018-10-07T19:09:26.869Z,13.19
2018-10-07T19:11:56.634Z,13.27
2018-10-07T19:14:26.093Z,13.33
2018-10-07T19:16:55.565Z,13.18
2018-10-07T19:19:24.896Z,13.12
2018-10-07T19:21:54.510Z,13.15
2018-10-07T19:24:24.422Z,13.11
2018-10-07T19:26:53.689Z,12.84
2018-10-07T19:29:23.333Z,12.43
2018-10-07T19:31:53.753Z,12.78
2018-10-07T19:34:23.227Z,12.95
2018-10-07T19:36:52.740Z,12.88
2018-10-07T19:39:22.166Z,12.88
2018-10-07T19:41:51.673Z,12.85
2018-10-07T19:44:21.481Z,12.77
2018-10-07T19:46:50.987Z,12.82
2018-10-07T19:49:20.448Z,12.67
2018-10-07T19:51:49.995Z,12.67
2018-10-07T19:54:19.502Z,12.49
2018-10-07T19:56:49.005Z,12.25
2018-10-07T19:59:18.508Z,12.21
2018-10-07T20:01:47.909Z,12.24
2018-10-07T20:04:17.516Z,12.25
2018-10-07T20:06:46.919Z,12.24
2018-10-07T20:09:16.399Z,12.10
2018-10-07T20:11:45.806Z,12.00
2018-10-07T20:14:15.270Z,11.97
2018-10-07T20:16:44.628Z,12.12
2018-10-07T20:19:14.078Z,12.05
2018-10-07T20:21:43.638Z,12.02
2018-10-07T20:24:13.138Z,12.05
2018-10-07T20:26:42.747Z,12.03
2018-10-07T20:29:12.148Z,11.90
2018-10-07T20:31:41.498Z,11.85
2018-10-07T20:34:11.157Z,11.89
2018-10-07T20:36:40.559Z,11.67
2018-10-07T20:39:10.887Z,11.53
2018-10-07T20:41:40.744Z,11.50
2018-10-07T20:44:10.293Z,11.55
2018-10-07T20:46:39.783Z,11.58
2018-10-07T20:49:09.283Z,11.80
2018-10-07T20:51:38.713Z,11.73
2018-10-07T20:54:08.319Z,11.69
2018-10-07T20:56:37.827Z,11.89
2018-10-07T20:59:07.943Z,11.90
2018-10-07T21:01:37.292Z,11.78
2018-10-07T21:04:06.607Z,11.73
2018-10-07T21:06:36.047Z,11.57
2018-10-07T21:09:08.748Z,11.42
2018-10-07T21:11:38.402Z,11.64
2018-10-07T21:14:07.752Z,11.72
2018-10-07T21:16:37.547Z,11.50
2018-10-07T21:19:06.876Z,11.39
2018-10-07T21:21:36.448Z,11.51
2018-10-07T21:24:05.831Z,11.60
2018-10-07T21:26:35.156Z,11.36
2018-10-07T21:29:04.479Z,11.30
2018-10-07T21:31:34.569Z,11.25
2018-10-07T21:34:03.855Z,11.11
2018-10-07T21:36:34.205Z,11.25
2018-10-07T21:39:05.400Z,11.17
2018-10-07T21:41:34.782Z,11.00
2018-10-07T21:44:04.133Z,11.22
2018-10-07T21:46:33.420Z,11.33
2018-10-07T21:49:04.201Z,11.42
2018-10-07T21:51:33.777Z,11.42
2018-10-07T21:54:04.916Z,11.35
2018-10-07T21:56:34.326Z,11.28
2018-10-07T21:59:03.826Z,11.15
2018-10-07T22:01:33.055Z,11.32
2018-10-07T22:04:02.423Z,11.12
2018-10-07T22:06:31.707Z,11.06
2018-10-07T22:09:00.982Z,11.12
2018-10-07T22:11:30.425Z,11.16
2018-10-07T22:13:59.676Z,11.01
2018-10-07T22:16:29.122Z,11.20
2018-10-07T22:18:58.367Z,11.05
2018-10-07T22:21:27.826Z,11.04
2018-10-07T22:23:57.126Z,11.14
2018-10-07T22:26:27.323Z,11.11
2018-10-07T22:28:56.574Z,10.88
2018-10-07T22:31:26.253Z,10.91
2018-10-07T22:33:55.760Z,10.99
2018-10-07T22:36:25.290Z,10.91
2018-10-07T22:38:54.866Z,10.95
2018-10-07T22:41:24.474Z,11.14
2018-10-07T22:43:54.082Z,11.11
2018-10-07T22:46:23.382Z,11.00
2018-10-07T22:48:52.674Z,11.05
2018-10-07T22:51:23.883Z,11.00
2018-10-07T22:53:53.534Z,11.01
2018-10-07T22:56:22.756Z,11.04
2018-10-07T22:58:52.029Z,11.06
2018-10-07T23:01:22.658Z,10.99
2018-10-07T23:03:53.147Z,10.92
2018-10-07T23:06:22.794Z,10.86
2018-10-07T23:08:52.253Z,10.97
2018-10-07T23:11:21.599Z,10.83
2018-10-07T23:13:51.119Z,10.74
2018-10-07T23:16:20.716Z,10.81
2018-10-07T23:18:50.001Z,10.55
2018-10-07T23:21:19.306Z,10.65
2018-10-07T23:23:48.796Z,10.62
2018-10-07T23:26:18.208Z,10.67
2018-10-07T23:28:47.716Z,10.65
2018-10-07T23:31:17.044Z,10.64
2018-10-07T23:33:46.624Z,10.67
2018-10-07T23:36:16.127Z,10.53
2018-10-07T23:38:45.591Z,10.45
2018-10-07T23:41:15.487Z,10.59
2018-10-07T23:43:44.946Z,10.59
2018-10-07T23:46:14.425Z,10.66
2018-10-07T23:48:43.956Z,10.67
2018-10-07T23:51:13.357Z,10.64
2018-10-07T23:53:42.763Z,10.73
2018-10-07T23:56:12.226Z,10.67
2018-10-07T23:58:41.665Z,10.58
